Time;durP1;ratioP1;P1;durP2;ratioP2;P2;SDS_P1;SDS_P2;PMS_P1;PMS_P2;Temp;Humidity;BMP_temperature;BMP_pressure;BME280_temperature;BME280_humidity;BME280_pressure;Samples;Min_cycle;Max_cycle;Signal;HPM_P1;HPM_P2
2022/04/07 00:00:16;;;;;;;47.22;44.47;;;;;;;9.06;100.00;100261.72;5084238;28;20101;-79
2022/04/07 00:02:43;;;;;;;39.55;37.22;;;;;;;9.09;100.00;100251.50;5086820;28;20052;-79
2022/04/07 00:05:11;;;;;;;38.58;35.97;;;;;;;8.56;100.00;100256.03;5079162;28;20052;-79
2022/04/07 00:07:38;;;;;;;43.22;40.75;;;;;;;8.20;100.00;100249.25;5089409;28;20082;-79
2022/04/07 00:10:05;;;;;;;39.30;36.90;;;;;;;8.30;100.00;100238.31;5083697;28;20447;-78
2022/04/07 00:12:33;;;;;;;42.10;39.40;;;;;;;8.42;100.00;100232.22;5082758;28;20060;-79
2022/04/07 00:15:02;;;;;;;36.42;34.33;;;;;;;8.47;100.00;100231.59;5083822;28;20587;-78
2022/04/07 00:17:29;;;;;;;44.67;42.22;;;;;;;8.54;100.00;100221.03;5086935;28;20470;-78
2022/04/07 00:19:56;;;;;;;41.15;38.90;;;;;;;8.54;100.00;100216.56;5081041;28;20041;-78
2022/04/07 00:22:22;;;;;;;36.90;34.60;;;;;;;8.54;100.00;100208.63;5092311;28;20052;-80
2022/04/07 00:24:49;;;;;;;43.13;40.72;;;;;;;8.27;100.00;100210.41;5084032;28;20041;-79
2022/04/07 00:27:16;;;;;;;48.33;45.65;;;;;;;7.93;100.00;100209.56;5083844;28;20401;-79
2022/04/07 00:29:43;;;;;;;38.20;35.92;;;;;;;8.02;100.00;100200.44;5087080;28;20055;-78
2022/04/07 00:32:11;;;;;;;37.95;35.67;;;;;;;7.89;100.00;100196.94;5090172;28;20052;-79
2022/04/07 00:34:39;;;;;;;37.95;35.85;;;;;;;8.24;100.00;100195.75;5091594;28;20040;-80
2022/04/07 00:37:05;;;;;;;36.83;34.65;;;;;;;8.52;100.00;100186.81;5078507;28;20054;-79
2022/04/07 00:39:32;;;;;;;37.10;34.88;;;;;;;8.56;100.00;100182.72;5079055;28;20040;-79
2022/04/07 00:41:59;;;;;;;39.22;36.92;;;;;;;8.71;100.00;100175.41;5086821;28;20405;-80
2022/04/07 00:44:27;;;;;;;38.00;35.83;;;;;;;8.69;100.00;100173.97;5081314;28;20094;-79
2022/04/07 00:46:54;;;;;;;35.33;32.88;;;;;;;8.75;100.00;100172.34;5082779;28;20415;-79
2022/04/07 00:49:22;;;;;;;38.08;35.83;;;;;;;8.73;100.00;100171.72;5082767;28;20113;-78
2022/04/07 00:51:50;;;;;;;41.58;39.40;;;;;;;8.62;100.00;100171.34;5086632;28;20101;-78
2022/04/07 00:54:18;;;;;;;38.28;36.17;;;;;;;8.09;100.00;100175.81;5082208;28;20045;-78
2022/04/07 00:56:44;;;;;;;38.58;36.28;;;;;;;7.77;100.00;100165.78;5086709;28;20165;-78
2022/04/07 00:59:16;;;;;;;43.75;41.05;;;;;;;7.89;100.00;100160.72;5084689;28;20040;-79
2022/04/07 01:01:43;;;;;;;41.70;39.30;;;;;;;8.21;100.00;100151.19;5087146;28;20052;-78
2022/04/07 01:04:09;;;;;;;41.63;39.40;;;;;;;8.36;100.00;100145.69;5085180;28;20596;-78
2022/04/07 01:06:38;;;;;;;45.22;42.70;;;;;;;8.63;100.00;100140.38;5083998;28;20109;-78
2022/04/07 01:09:05;;;;;;;40.08;37.80;;;;;;;8.27;100.00;100142.44;5081900;28;20079;-79
2022/04/07 01:11:33;;;;;;;39.05;36.75;;;;;;;8.01;100.00;100145.06;5088231;28;20048;-78
2022/04/07 01:14:00;;;;;;;41.65;39.22;;;;;;;8.28;100.00;100143.25;5085197;28;20106;-79
2022/04/07 01:16:29;;;;;;;42.85;40.33;;;;;;;7.83;100.00;100152.78;5082682;28;20047;-78
2022/04/07 01:18:59;;;;;;;43.42;41.03;;;;;;;7.99;100.00;100153.22;5080992;28;20052;-79
2022/04/07 01:21:27;;;;;;;40.17;37.97;;;;;;;8.21;100.00;100140.59;5092548;28;20131;-78
2022/04/07 01:24:02;;;;;;;40.05;37.65;;;;;;;7.51;100.00;100144.59;5082982;28;20496;-78
2022/04/07 01:26:32;;;;;;;45.85;43.10;;;;;;;7.00;100.00;100137.91;5083462;28;20139;-78
2022/04/07 01:29:00;;;;;;;44.67;42.17;;;;;;;7.19;100.00;100130.28;5086041;28;20046;-79
2022/04/07 01:31:27;;;;;;;47.95;44.85;;;;;;;6.33;100.00;100130.63;5081145;28;20040;-78
2022/04/07 01:33:57;;;;;;;45.50;42.65;;;;;;;6.91;100.00;100125.09;5080098;28;20048;-78
2022/04/07 01:36:25;;;;;;;44.25;41.55;;;;;;;7.53;100.00;100122.25;5092429;28;20044;-79
2022/04/07 01:38:52;;;;;;;43.25;40.55;;;;;;;7.74;100.00;100118.59;5085673;28;20111;-78
2022/04/07 01:41:20;;;;;;;46.00;43.20;;;;;;;7.79;100.00;100118.00;5082453;28;20474;-79
2022/04/07 01:43:50;;;;;;;38.72;36.13;;;;;;;7.78;100.00;100108.47;5087972;28;20076;-78
2022/04/07 01:46:18;;;;;;;39.63;37.20;;;;;;;8.25;100.00;100091.53;5081293;28;20044;-79
2022/04/07 01:48:45;;;;;;;46.72;44.13;;;;;;;8.09;100.00;100091.97;5080234;28;20500;-78
2022/04/07 01:51:13;;;;;;;44.65;41.90;;;;;;;8.36;100.00;100084.00;5083640;28;20105;-78
2022/04/07 01:53:41;;;;;;;46.85;44.28;;;;;;;8.39;100.00;100086.28;5086951;28;20059;-79
2022/04/07 01:56:08;;;;;;;42.30;39.75;;;;;;;8.42;100.00;100077.94;5085784;28;20048;-78
2022/04/07 01:58:36;;;;;;;41.53;39.05;;;;;;;8.11;100.00;100083.81;5086033;28;20044;-78
2022/04/07 02:01:04;;;;;;;44.30;41.80;;;;;;;8.14;100.00;100081.59;5087825;28;20134;-78
2022/04/07 02:03:31;;;;;;;50.58;47.60;;;;;;;8.12;100.00;100078.34;5086015;28;20055;-78
2022/04/07 02:06:10;;;;;;;51.97;48.88;;;;;;;8.51;100.00;100081.16;5089276;28;20052;-79
2022/04/07 02:08:37;;;;;;;54.60;51.50;;;;;;;7.71;100.00;100081.19;5084087;28;20048;-78
2022/04/07 02:11:04;;;;;;;55.47;52.08;;;;;;;6.65;100.00;100079.88;5085226;28;20114;-78
2022/04/07 02:13:32;;;;;;;63.90;60.15;;;;;;;6.98;100.00;100087.13;5088252;28;20465;-79
2022/04/07 02:15:59;;;;;;;70.80;66.80;;;;;;;7.19;100.00;100072.16;5084455;28;20101;-79
2022/04/07 02:18:28;;;;;;;74.47;70.03;;;;;;;7.46;100.00;100057.19;5085772;28;20097;-79
2022/04/07 02:20:54;;;;;;;50.95;47.70;;;;;;;7.67;100.00;100050.91;5084885;28;20487;-79
2022/04/07 02:23:21;;;;;;;55.58;52.05;;;;;;;7.80;100.00;100046.41;5090301;28;20098;-79
2022/04/07 02:25:48;;;;;;;58.97;55.13;;;;;;;7.56;100.00;100036.44;5085652;28;20044;-78
2022/04/07 02:28:14;;;;;;;46.00;43.00;;;;;;;7.71;100.00;100033.59;5081352;28;20049;-80
2022/04/07 02:30:41;;;;;;;51.17;47.75;;;;;;;7.17;100.00;100031.94;5091940;28;20113;-78
2022/04/07 02:33:08;;;;;;;49.40;46.40;;;;;;;8.17;100.00;100030.09;5079997;28;20102;-78
2022/04/07 02:35:36;;;;;;;47.92;45.22;;;;;;;8.44;100.00;100020.28;5090051;28;20052;-79
2022/04/07 02:38:03;;;;;;;43.53;40.83;;;;;;;8.97;100.00;100012.13;5092558;28;20102;-79
2022/04/07 02:40:30;;;;;;;44.97;42.53;;;;;;;9.17;100.00;100017.31;5084680;28;20130;-79
2022/04/07 02:42:56;;;;;;;46.25;43.55;;;;;;;9.20;100.00;100005.47;5084573;28;20562;-79
2022/04/07 02:45:23;;;;;;;44.47;41.67;;;;;;;9.18;100.00;99992.44;5088451;28;20044;-79
2022/04/07 02:47:51;;;;;;;43.33;40.70;;;;;;;9.15;100.00;99998.97;5087537;28;20106;-78
2022/04/07 02:50:18;;;;;;;45.70;42.95;;;;;;;9.04;100.00;99990.91;5087917;28;20518;-79
2022/04/07 02:52:46;;;;;;;40.75;38.40;;;;;;;9.18;100.00;99987.94;5091755;28;20592;-79
2022/04/07 02:55:13;;;;;;;41.47;39.08;;;;;;;9.22;100.00;99974.28;5083949;28;20041;-78
2022/04/07 02:57:39;;;;;;;42.40;39.92;;;;;;;9.34;100.00;99968.06;5084525;28;20048;-79
2022/04/07 03:00:07;;;;;;;48.35;45.25;;;;;;;9.30;100.00;99960.78;5083760;28;20576;-78
2022/04/07 03:02:34;;;;;;;44.22;41.63;;;;;;;9.24;100.00;99956.34;5089541;28;20576;-79
2022/04/07 03:05:01;;;;;;;41.17;38.58;;;;;;;9.34;100.00;99948.69;5089175;28;20487;-79
2022/04/07 03:07:28;;;;;;;42.30;39.70;;;;;;;9.19;100.00;99951.66;5093130;28;20055;-79
2022/04/07 03:09:56;;;;;;;40.42;37.90;;;;;;;9.33;100.00;99937.28;5079403;28;20052;-79
2022/04/07 03:12:22;;;;;;;39.88;37.55;;;;;;;9.51;100.00;99925.94;5086018;28;20049;-79
2022/04/07 03:14:49;;;;;;;38.70;36.17;;;;;;;9.43;100.00;99926.19;5086393;28;20052;-79
2022/04/07 03:17:16;;;;;;;41.97;39.65;;;;;;;9.40;100.00;99924.78;5090138;28;20040;-79
2022/04/07 03:19:44;;;;;;;40.95;38.55;;;;;;;9.42;100.00;99911.34;5090551;28;20044;-79
2022/04/07 03:22:12;;;;;;;38.03;35.72;;;;;;;9.51;100.00;99915.31;5094310;28;20474;-79
2022/04/07 03:24:39;;;;;;;45.25;42.80;;;;;;;9.46;100.00;99904.56;5084672;28;20105;-79
2022/04/07 03:27:07;;;;;;;42.67;39.92;;;;;;;9.43;100.00;99904.19;5082657;28;20498;-79
2022/04/07 03:29:35;;;;;;;43.22;40.72;;;;;;;9.42;100.00;99899.94;5082215;28;20497;-79
2022/04/07 03:32:02;;;;;;;39.75;37.20;;;;;;;9.40;100.00;99897.47;5086657;28;20082;-79
2022/04/07 03:34:28;;;;;;;38.55;36.17;;;;;;;9.49;100.00;99895.34;5089393;28;20062;-79
2022/04/07 03:36:55;;;;;;;44.42;41.60;;;;;;;9.54;100.00;99895.53;5088012;28;20400;-79
2022/04/07 03:39:22;;;;;;;38.47;36.17;;;;;;;9.49;100.00;99890.06;5088115;28;20044;-79
2022/04/07 03:41:50;;;;;;;38.38;36.00;;;;;;;9.54;100.00;99869.81;5081889;28;20048;-79
2022/04/07 03:44:18;;;;;;;41.33;38.05;;;;;;;9.42;100.00;99884.81;5088834;28;20114;-79
2022/04/07 03:46:45;;;;;;;39.05;36.72;;;;;;;9.39;100.00;99879.97;5088343;28;20044;-79
2022/04/07 03:49:12;;;;;;;37.47;35.17;;;;;;;9.51;100.00;99882.72;5093499;28;20420;-79
2022/04/07 03:51:39;;;;;;;41.15;38.53;;;;;;;9.57;100.00;99868.56;5085514;28;20045;-79
2022/04/07 03:54:06;;;;;;;40.67;38.13;;;;;;;9.51;100.00;99857.00;5079759;28;20063;-79
2022/04/07 03:56:32;;;;;;;37.45;35.10;;;;;;;9.41;100.00;99856.72;5083951;28;20056;-79
2022/04/07 03:58:59;;;;;;;36.97;34.63;;;;;;;9.49;100.00;99859.06;5086650;28;20500;-79
2022/04/07 04:01:27;;;;;;;36.83;34.13;;;;;;;9.60;100.00;99849.56;5093395;28;20110;-79
2022/04/07 04:03:54;;;;;;;39.05;36.42;;;;;;;9.86;100.00;99853.75;5080748;28;20047;-79
2022/04/07 04:06:21;;;;;;;42.83;39.72;;;;;;;9.74;100.00;99850.22;5088658;28;20047;-79
2022/04/07 04:08:48;;;;;;;43.42;40.22;;;;;;;9.69;100.00;99836.84;5086186;28;20105;-79
2022/04/07 04:11:14;;;;;;;43.38;40.50;;;;;;;9.83;100.00;99836.47;5082460;28;20103;-79
2022/04/07 04:13:41;;;;;;;45.83;42.78;;;;;;;9.89;100.00;99832.09;5080566;28;20052;-79
2022/04/07 04:16:09;;;;;;;48.47;45.47;;;;;;;9.98;100.00;99817.50;5088087;28;20105;-79
2022/04/07 04:18:37;;;;;;;46.47;43.47;;;;;;;10.16;100.00;99821.97;5081267;28;20084;-79
2022/04/07 04:21:04;;;;;;;46.60;43.58;;;;;;;10.13;100.00;99821.59;5085311;28;20473;-79
2022/04/07 04:23:30;;;;;;;46.92;43.97;;;;;;;10.39;100.00;99821.28;5080917;28;20056;-79
2022/04/07 04:25:57;;;;;;;36.60;33.83;;;;;;;10.34;100.00;99815.03;5083658;28;20048;-79
2022/04/07 04:28:24;;;;;;;35.78;33.17;;;;;;;10.42;100.00;99812.84;5083344;28;20465;-79
2022/04/07 04:30:50;;;;;;;36.00;33.55;;;;;;;10.66;100.00;99812.91;5082625;28;20052;-79
2022/04/07 04:33:17;;;;;;;36.40;33.80;;;;;;;10.65;100.00;99816.59;5083667;28;20048;-79
2022/04/07 04:35:45;;;;;;;36.60;34.00;;;;;;;10.76;100.00;99813.97;5088815;28;20466;-80
2022/04/07 04:38:12;;;;;;;36.45;33.50;;;;;;;10.87;100.00;99800.94;5085140;28;20045;-79
2022/04/07 04:40:39;;;;;;;36.75;33.65;;;;;;;10.81;100.00;99799.19;5084546;28;20124;-79
2022/04/07 04:43:06;;;;;;;37.50;34.60;;;;;;;11.04;100.00;99801.06;5088321;28;20059;-79
2022/04/07 04:45:33;;;;;;;36.58;34.00;;;;;;;11.02;100.00;99790.66;5082632;28;20044;-79
2022/04/07 04:48:00;;;;;;;36.83;34.33;;;;;;;11.04;100.00;99793.88;5081051;28;20070;-80
2022/04/07 04:50:27;;;;;;;36.88;34.30;;;;;;;11.12;100.00;99788.22;5082830;28;20045;-79
2022/04/07 04:52:56;;;;;;;41.40;38.50;;;;;;;11.20;98.15;99789.75;5088911;28;20388;-79
2022/04/07 04:55:22;;;;;;;40.00;37.40;;;;;;;11.18;96.87;99784.63;5083898;28;20109;-79
2022/04/07 04:57:50;;;;;;;40.03;37.10;;;;;;;11.37;94.57;99781.84;5087325;28;20484;-78
2022/04/07 05:00:17;;;;;;;39.15;36.08;;;;;;;11.31;94.14;99775.59;5083484;28;20055;-79
2022/04/07 05:02:44;;;;;;;40.55;37.83;;;;;;;11.39;94.07;99766.47;5085677;28;20066;-79
2022/04/07 05:05:11;;;;;;;42.33;39.83;;;;;;;11.51;90.46;99767.25;5090262;28;20051;-80
2022/04/07 05:07:38;;;;;;;37.85;35.42;;;;;;;11.47;90.04;99766.13;5089127;28;20052;-79
2022/04/07 05:10:07;;;;;;;38.78;36.20;;;;;;;11.70;89.88;99767.91;5082465;28;20044;-79
2022/04/07 05:12:34;;;;;;;39.80;37.17;;;;;;;11.74;87.97;99769.06;5089770;28;20048;-79
2022/04/07 05:15:01;;;;;;;39.80;37.13;;;;;;;11.81;86.39;99750.28;5090186;28;20059;-79
2022/04/07 05:17:27;;;;;;;41.55;38.92;;;;;;;11.90;87.39;99739.06;5089352;28;20044;-78
2022/04/07 05:19:54;;;;;;;41.30;38.28;;;;;;;11.94;85.70;99746.56;5091131;28;20074;-79
2022/04/07 05:22:21;;;;;;;40.25;37.30;;;;;;;12.13;85.73;99739.97;5090513;28;20109;-79
2022/04/07 05:24:48;;;;;;;44.65;40.90;;;;;;;12.25;85.21;99746.03;5091493;28;20047;-79
2022/04/07 05:27:17;;;;;;;38.42;35.50;;;;;;;12.34;83.73;99739.31;5088811;28;20404;-79
2022/04/07 05:29:44;;;;;;;37.20;34.90;;;;;;;12.34;81.27;99733.97;5086121;28;20039;-79
2022/04/07 05:32:10;;;;;;;42.67;39.58;;;;;;;12.43;80.67;99734.34;5088170;28;20168;-79
2022/04/07 05:34:38;;;;;;;37.78;35.28;;;;;;;12.48;79.61;99738.97;5089019;28;20117;-79
2022/04/07 05:37:05;;;;;;;35.78;33.47;;;;;;;12.70;78.85;99728.38;5092036;28;20086;-79
2022/04/07 05:39:31;;;;;;;40.40;37.67;;;;;;;12.73;78.02;99720.72;5081537;28;20056;-79
2022/04/07 05:41:58;;;;;;;41.47;38.53;;;;;;;12.89;78.75;99720.94;5081393;28;20044;-79
2022/04/07 05:44:27;;;;;;;38.88;36.17;;;;;;;13.10;77.35;99728.19;5088113;28;20044;-79
2022/04/07 05:46:54;;;;;;;40.45;38.05;;;;;;;13.08;74.26;99719.63;5089271;28;20051;-79
2022/04/07 05:49:21;;;;;;;44.45;41.40;;;;;;;13.25;74.75;99711.56;5085533;28;20043;-78
2022/04/07 05:51:50;;;;;;;38.42;35.83;;;;;;;13.29;73.85;99697.50;5089866;28;20060;-79
2022/04/07 05:54:18;;;;;;;42.35;39.80;;;;;;;13.36;72.61;99697.31;5088657;28;20131;-79
2022/04/07 05:56:45;;;;;;;37.42;34.83;;;;;;;13.43;71.94;99699.78;5085295;28;20480;-79
2022/04/07 05:59:12;;;;;;;36.78;34.22;;;;;;;13.53;71.85;99697.25;5078605;28;20110;-79
2022/04/07 06:01:40;;;;;;;41.53;38.63;;;;;;;13.40;71.41;99702.97;5085173;28;20105;-78
2022/04/07 06:04:07;;;;;;;39.58;37.03;;;;;;;13.56;70.34;99695.97;5082012;28;20124;-78
2022/04/07 06:06:33;;;;;;;42.38;38.97;;;;;;;13.79;71.21;99694.84;5091849;28;20056;-81
2022/04/07 06:09:00;;;;;;;38.03;35.58;;;;;;;13.73;70.15;99692.13;5088863;28;20044;-78
2022/04/07 06:11:27;;;;;;;37.95;35.35;;;;;;;13.94;70.88;99684.31;5087005;28;20040;-79
2022/04/07 06:13:54;;;;;;;37.55;35.00;;;;;;;13.98;69.27;99682.78;5085048;28;20427;-79
2022/04/07 06:16:21;;;;;;;38.20;35.60;;;;;;;14.17;68.42;99672.53;5087168;28;20090;-79
2022/04/07 06:18:51;;;;;;;40.05;37.33;;;;;;;14.31;67.62;99670.22;5074731;28;20048;-79
2022/04/07 06:21:17;;;;;;;40.85;37.80;;;;;;;14.28;64.46;99657.38;5083240;28;20466;-78
2022/04/07 06:23:44;;;;;;;41.55;38.42;;;;;;;14.49;65.67;99661.00;5088423;28;20044;-79
2022/04/07 06:26:11;;;;;;;39.53;37.03;;;;;;;14.59;64.46;99653.09;5085719;28;20569;-79
2022/04/07 06:28:40;;;;;;;39.50;36.42;;;;;;;14.55;64.61;99647.44;5082043;28;20101;-78
2022/04/07 06:31:06;;;;;;;40.95;38.05;;;;;;;14.71;64.31;99650.22;5081477;28;20135;-80
2022/04/07 06:33:33;;;;;;;37.90;35.40;;;;;;;14.84;62.46;99634.50;5080335;28;20085;-79
2022/04/07 06:36:03;;;;;;;36.85;34.65;;;;;;;14.98;60.87;99632.19;5090548;28;20052;-79
2022/04/07 06:38:30;;;;;;;36.70;34.42;;;;;;;14.96;58.71;99631.63;5089595;28;20051;-79
2022/04/07 06:40:57;;;;;;;35.60;33.30;;;;;;;15.11;58.77;99622.84;5082945;28;20074;-79
2022/04/07 06:43:24;;;;;;;35.03;33.03;;;;;;;15.20;59.43;99615.13;5089836;28;20089;-79
2022/04/07 06:45:50;;;;;;;36.03;33.60;;;;;;;15.45;57.88;99625.88;5085197;28;20495;-79
2022/04/07 06:48:17;;;;;;;36.00;33.28;;;;;;;15.56;58.20;99627.53;5088259;28;20052;-79
2022/04/07 06:50:45;;;;;;;36.97;34.28;;;;;;;15.72;59.50;99620.34;5088449;28;20040;-79
2022/04/07 06:53:14;;;;;;;37.70;34.65;;;;;;;15.58;55.27;99624.56;5093058;28;20077;-79
2022/04/07 06:55:41;;;;;;;37.50;34.63;;;;;;;15.43;54.36;99617.34;5091808;28;20120;-79
2022/04/07 06:58:10;;;;;;;37.83;35.17;;;;;;;15.62;54.67;99614.97;5090073;28;20037;-80
2022/04/07 07:00:45;;;;;;;36.92;34.60;;;;;;;15.73;53.65;99624.66;5093890;28;20147;-80
2022/04/07 07:03:15;;;;;;;36.67;34.13;;;;;;;15.95;55.33;99618.22;5088347;28;20113;-79
2022/04/07 07:05:42;;;;;;;37.67;35.03;;;;;;;16.05;53.68;99612.06;5089660;28;20126;-78
2022/04/07 07:08:18;;;;;;;37.92;35.25;;;;;;;16.07;52.91;99601.88;5089533;28;20059;-78
2022/04/07 07:10:46;;;;;;;38.35;35.47;;;;;;;16.25;53.26;99593.31;5089435;28;20139;-78
2022/04/07 07:13:16;;;;;;;36.92;34.42;;;;;;;16.39;53.88;99588.16;5091522;28;20084;-79
2022/04/07 07:15:43;;;;;;;35.67;33.10;;;;;;;16.45;51.78;99585.19;5092156;28;20579;-79
2022/04/07 07:18:11;;;;;;;35.65;32.97;;;;;;;16.64;51.57;99592.66;5080121;28;20048;-79
2022/04/07 07:20:38;;;;;;;35.75;33.40;;;;;;;16.51;49.75;99588.69;5087122;28;20567;-79
2022/04/07 07:23:06;;;;;;;39.33;36.83;;;;;;;16.54;49.40;99596.16;5079994;28;20044;-79
2022/04/07 07:25:34;;;;;;;38.70;35.97;;;;;;;16.59;51.33;99595.38;5080828;28;20696;-79
2022/04/07 07:28:01;;;;;;;36.42;34.30;;;;;;;16.57;50.12;99602.88;5081776;28;20104;-80
2022/04/07 07:30:29;;;;;;;37.22;34.70;;;;;;;16.62;48.14;99592.16;5085108;28;20125;-79
2022/04/07 07:32:56;;;;;;;37.17;34.63;;;;;;;16.74;49.01;99603.38;5086036;28;20571;-79
2022/04/07 07:35:24;;;;;;;36.28;34.08;;;;;;;16.49;47.26;99599.69;5084326;28;20048;-79
2022/04/07 07:37:52;;;;;;;37.70;35.60;;;;;;;16.58;49.62;99597.25;5075816;28;20477;-79
2022/04/07 07:40:20;;;;;;;37.58;35.20;;;;;;;16.61;47.77;99590.53;5084632;28;20055;-79
2022/04/07 07:42:49;;;;;;;37.10;35.00;;;;;;;16.78;48.38;99590.22;5082868;28;20494;-79
2022/04/07 07:45:16;;;;;;;37.08;34.88;;;;;;;16.98;47.51;99586.69;5084362;28;20125;-79
2022/04/07 07:47:43;;;;;;;37.97;35.33;;;;;;;17.34;46.39;99589.97;5081897;28;20044;-79
2022/04/07 07:50:10;;;;;;;37.80;35.38;;;;;;;17.24;47.77;99584.66;5082125;28;20102;-79
2022/04/07 07:52:37;;;;;;;36.20;34.10;;;;;;;17.46;45.64;99582.38;5075035;28;20101;-78
2022/04/07 07:55:05;;;;;;;35.30;33.17;;;;;;;17.68;47.65;99589.22;5087303;28;20052;-80
2022/04/07 07:57:32;;;;;;;34.67;31.90;;;;;;;17.79;46.05;99602.31;5083072;28;20101;-79
2022/04/07 08:00:00;;;;;;;38.78;36.58;;;;;;;17.33;44.78;99596.41;5082503;28;20044;-79
2022/04/07 08:02:27;;;;;;;34.72;32.83;;;;;;;17.23;45.72;99591.91;5087832;28;20105;-79
2022/04/07 08:04:54;;;;;;;34.00;32.00;;;;;;;17.23;45.79;99585.75;5082965;28;20048;-79
2022/04/07 08:07:22;;;;;;;34.00;31.75;;;;;;;17.30;46.45;99586.22;5077065;28;20056;-79
2022/04/07 08:09:49;;;;;;;33.85;31.60;;;;;;;17.23;45.30;99580.38;5087018;28;20574;-79
2022/04/07 08:12:17;;;;;;;35.10;32.63;;;;;;;17.10;48.38;99581.78;5085894;28;20040;-79
2022/04/07 08:14:44;;;;;;;33.78;31.05;;;;;;;17.27;46.57;99578.72;5080271;28;20139;-80
2022/04/07 08:17:12;;;;;;;34.70;32.53;;;;;;;17.46;48.78;99578.88;5087297;28;20559;-79
2022/04/07 08:19:40;;;;;;;35.47;33.17;;;;;;;17.72;45.76;99571.44;5078884;28;20052;-79
2022/04/07 08:22:06;;;;;;;36.85;34.45;;;;;;;18.08;45.73;99561.22;5091472;28;20054;-79
2022/04/07 08:24:33;;;;;;;35.55;32.80;;;;;;;18.20;43.53;99558.94;5086435;28;20493;-79
2022/04/07 08:27:00;;;;;;;33.47;31.25;;;;;;;18.46;44.10;99543.34;5079439;28;20059;-80
2022/04/07 08:29:27;;;;;;;33.20;31.02;;;;;;;18.71;46.26;99555.69;5082227;28;20499;-79
2022/04/07 08:31:53;;;;;;;33.58;31.77;;;;;;;18.82;44.01;99556.41;5086545;28;20110;-80
2022/04/07 08:34:22;;;;;;;34.50;32.08;;;;;;;18.86;41.64;99551.25;5085070;28;20043;-79
2022/04/07 08:36:49;;;;;;;33.88;31.67;;;;;;;19.20;41.86;99545.66;5085654;28;20048;-79
2022/04/07 08:39:16;;;;;;;34.58;32.67;;;;;;;19.51;40.13;99551.38;5082998;28;20413;-79
2022/04/07 08:41:45;;;;;;;36.75;34.63;;;;;;;20.06;41.39;99543.50;5085120;28;20508;-79
2022/04/07 08:44:12;;;;;;;33.42;31.13;;;;;;;19.99;39.64;99539.59;5082314;28;20052;-79
2022/04/07 08:46:40;;;;;;;32.65;30.52;;;;;;;19.99;39.31;99534.19;5083646;28;20048;-80
2022/04/07 08:49:11;;;;;;;34.60;32.05;;;;;;;19.66;39.31;99535.00;5080257;28;20053;-80
2022/04/07 08:51:39;;;;;;;32.28;30.15;;;;;;;19.18;39.16;99527.13;5080748;28;20082;-79
2022/04/07 08:54:12;;;;;;;33.58;31.30;;;;;;;18.89;39.83;99526.47;5078840;28;20049;-80
2022/04/07 08:56:39;;;;;;;35.83;32.97;;;;;;;18.75;40.90;99534.44;5078485;28;20056;-79
2022/04/07 08:59:06;;;;;;;33.95;31.65;;;;;;;18.22;43.01;99521.84;5082677;28;20428;-79
2022/04/07 09:01:33;;;;;;;36.90;34.40;;;;;;;18.34;41.93;99524.16;5086233;28;20044;-79
2022/04/07 09:03:59;;;;;;;36.42;33.88;;;;;;;18.11;41.86;99527.63;5079768;28;20473;-79
2022/04/07 09:06:29;;;;;;;36.88;34.42;;;;;;;18.03;42.04;99527.16;5081050;28;20135;-79
2022/04/07 09:09:10;;;;;;;35.13;32.85;;;;;;;17.97;42.77;99527.47;5078322;28;20044;-79
2022/04/07 09:11:36;;;;;;;35.95;33.45;;;;;;;17.72;42.27;99540.00;5082680;28;20135;-79
2022/04/07 09:14:03;;;;;;;35.38;32.72;;;;;;;17.39;46.02;99545.09;5084046;28;20055;-79
2022/04/07 09:16:32;;;;;;;37.95;34.42;;;;;;;16.86;50.74;99554.81;5090671;28;20048;-80
2022/04/07 09:19:01;;;;;;;37.58;33.90;;;;;;;16.60;52.70;99551.41;5081757;28;20040;-79
2022/04/07 09:21:28;;;;;;;38.83;35.97;;;;;;;16.20;57.44;99547.75;5079532;28;20080;-80
2022/04/07 09:23:58;;;;;;;37.53;34.13;;;;;;;15.80;61.87;99547.53;5084074;28;20044;-79
2022/04/07 09:26:25;;;;;;;39.60;36.08;;;;;;;15.31;75.85;99544.53;5090679;28;20048;-79
2022/04/07 09:28:56;;;;;;;38.03;35.28;;;;;;;14.91;100.00;99547.91;5085559;28;20570;-79
2022/04/07 09:31:23;;;;;;;37.13;34.42;;;;;;;14.30;100.00;99540.41;5083804;28;20099;-80
2022/04/07 09:33:54;;;;;;;35.83;32.95;;;;;;;14.08;100.00;99536.00;5088884;28;20047;-79
2022/04/07 09:36:22;;;;;;;34.95;31.88;;;;;;;13.91;100.00;99536.16;5085338;28;20139;-79
2022/04/07 09:38:53;;;;;;;32.25;29.95;;;;;;;13.93;100.00;99536.72;5085661;28;20047;-79
2022/04/07 09:41:22;;;;;;;35.17;31.90;;;;;;;14.11;100.00;99526.69;5085219;28;20044;-79
2022/04/07 09:43:50;;;;;;;34.28;31.73;;;;;;;14.11;100.00;99532.03;5085606;28;20075;-79
2022/04/07 09:46:18;;;;;;;32.25;29.98;;;;;;;14.17;100.00;99526.44;5082813;28;20086;-79
2022/04/07 09:49:04;;;;;;;34.15;31.63;;;;;;;13.94;100.00;99518.81;5089022;28;20101;-79
2022/04/07 09:51:36;;;;;;;35.25;32.20;;;;;;;13.96;100.00;99517.50;5072364;28;20063;-80
2022/04/07 09:54:04;;;;;;;34.15;31.48;;;;;;;14.00;100.00;99512.47;5085355;28;20113;-80
2022/04/07 09:56:33;;;;;;;35.72;32.83;;;;;;;13.79;100.00;99508.03;5083724;28;20106;-80
2022/04/07 09:59:01;;;;;;;34.95;31.77;;;;;;;13.90;100.00;99513.19;5081747;28;20044;-80
2022/04/07 10:01:28;;;;;;;33.10;29.95;;;;;;;13.81;100.00;99505.94;5082562;28;20098;-79
2022/04/07 10:03:56;;;;;;;35.72;32.05;;;;;;;14.03;100.00;99517.28;5087868;28;20040;-80
2022/04/07 10:06:23;;;;;;;33.85;30.25;;;;;;;13.78;100.00;99512.59;5080639;28;20102;-80
2022/04/07 10:08:51;;;;;;;36.85;31.83;;;;;;;13.86;100.00;99512.13;5077477;28;20052;-79
2022/04/07 10:11:18;;;;;;;37.72;34.50;;;;;;;13.62;100.00;99495.66;5082689;28;20052;-79
2022/04/07 10:13:48;;;;;;;33.05;30.10;;;;;;;13.52;100.00;99507.06;5081195;28;20053;-79
2022/04/07 10:16:17;;;;;;;34.08;30.75;;;;;;;13.60;100.00;99513.78;5085493;28;20049;-79
2022/04/07 10:18:48;;;;;;;36.13;32.47;;;;;;;13.53;100.00;99502.53;5087712;28;20510;-80
2022/04/07 10:21:31;;;;;;;34.43;31.77;;;;;;;13.36;100.00;99493.84;5094590;28;20051;-80
2022/04/07 10:24:12;;;;;;;31.42;28.67;;;;;;;13.13;100.00;99497.59;5085186;28;20043;-79
2022/04/07 10:26:42;;;;;;;37.40;33.97;;;;;;;13.24;100.00;99494.78;5089781;28;20056;-80
2022/04/07 10:29:20;;;;;;;36.45;33.90;;;;;;;13.28;100.00;99503.09;5084609;28;20225;-79
2022/04/07 10:32:21;;;;;;;34.85;32.03;;;;;;;13.20;100.00;99508.88;5092010;28;20147;-79
2022/04/07 10:34:58;;;;;;;34.78;31.92;;;;;;;13.25;100.00;99504.44;5083007;28;20063;-79
2022/04/07 10:37:40;;;;;;;36.15;33.50;;;;;;;13.13;100.00;99497.59;5092452;28;20048;-79
2022/04/07 10:40:35;;;;;;;32.33;30.02;;;;;;;13.13;100.00;99486.94;5088659;28;20060;-79
2022/04/07 10:43:25;;;;;;;31.83;29.70;;;;;;;13.21;100.00;99481.94;5089064;28;20056;-79
2022/04/07 10:46:05;;;;;;;33.28;30.58;;;;;;;13.06;100.00;99485.28;5092125;28;20431;-79
2022/04/07 10:48:34;;;;;;;31.90;29.65;;;;;;;13.30;100.00;99490.31;5093411;28;20400;-79
2022/04/07 10:51:03;;;;;;;33.95;31.10;;;;;;;13.34;100.00;99503.94;5082214;28;20048;-80
2022/04/07 10:53:32;;;;;;;34.92;32.38;;;;;;;12.98;100.00;99496.41;5091641;28;20051;-79
2022/04/07 10:56:06;;;;;;;33.35;31.08;;;;;;;13.03;100.00;99488.44;5088020;28;20105;-79
2022/04/07 10:58:43;;;;;;;33.15;30.70;;;;;;;12.84;100.00;99480.00;5091103;28;20491;-79
2022/04/07 11:01:15;;;;;;;34.15;31.67;;;;;;;12.78;100.00;99475.66;5064508;28;20080;-79
2022/04/07 11:03:43;;;;;;;34.17;31.48;;;;;;;12.80;100.00;99476.22;5083601;28;20051;-80
2022/04/07 11:06:11;;;;;;;36.00;33.10;;;;;;;12.82;100.00;99482.09;5084274;28;20143;-79
2022/04/07 11:08:38;;;;;;;34.95;32.03;;;;;;;12.91;100.00;99477.13;5086446;28;20059;-79
2022/04/07 11:11:05;;;;;;;35.63;32.85;;;;;;;12.95;100.00;99485.41;5088594;28;20044;-79
2022/04/07 11:13:50;;;;;;;34.35;31.35;;;;;;;12.87;100.00;99483.22;5089484;28;20048;-80
2022/04/07 11:16:29;;;;;;;33.90;31.63;;;;;;;12.66;100.00;99484.84;5091715;28;20074;-80
2022/04/07 11:19:17;;;;;;;32.22;29.55;;;;;;;12.49;100.00;99496.38;5086123;28;20052;-80